createdAt,value
2023-08-13T00:01:01.528Z,19.48
2023-08-13T00:03:30.663Z,19.49
2023-08-13T00:05:58.365Z,19.55
2023-08-13T00:08:26.006Z,19.60
2023-08-13T00:10:53.680Z,19.67
2023-08-13T00:13:21.312Z,19.72
2023-08-13T00:15:49.067Z,19.77
2023-08-13T00:18:16.683Z,19.81
2023-08-13T00:20:45.674Z,19.81
2023-08-13T00:23:13.354Z,19.82
2023-08-13T00:25:41.056Z,19.83
2023-08-13T00:28:08.689Z,19.82
2023-08-13T00:30:36.697Z,19.74
2023-08-13T00:33:04.517Z,19.73
2023-08-13T00:35:32.140Z,19.70
2023-08-13T00:38:01.133Z,19.70
2023-08-13T00:40:29.458Z,19.68
2023-08-13T00:42:57.183Z,19.66
2023-08-13T00:45:25.277Z,19.59
2023-08-13T00:47:53.070Z,19.68
2023-08-13T00:50:20.809Z,19.73
2023-08-13T00:52:48.458Z,19.71
2023-08-13T00:55:17.397Z,19.68
2023-08-13T00:57:45.170Z,19.64
2023-08-13T01:00:14.479Z,19.39
2023-08-13T01:02:42.155Z,19.24
2023-08-13T01:05:10.959Z,19.27
2023-08-13T01:07:44.016Z,19.38
2023-08-13T01:10:16.375Z,19.43
2023-08-13T01:12:49.401Z,19.45
2023-08-13T01:15:19.766Z,19.45
2023-08-13T01:17:50.506Z,19.46
2023-08-13T01:20:19.423Z,19.39
2023-08-13T01:22:49.814Z,19.35
2023-08-13T01:25:18.869Z,19.37
2023-08-13T01:27:51.347Z,19.32
2023-08-13T01:30:22.719Z,19.32
2023-08-13T01:32:53.436Z,19.31
2023-08-13T01:35:22.196Z,19.28
2023-08-13T01:37:51.716Z,19.28
2023-08-13T01:40:19.524Z,19.28
2023-08-13T01:42:47.156Z,19.32
2023-08-13T01:45:14.833Z,19.38
2023-08-13T01:47:42.742Z,19.41
2023-08-13T01:50:11.133Z,19.49
2023-08-13T01:52:38.791Z,19.44
2023-08-13T01:55:09.533Z,19.21
2023-08-13T01:57:37.166Z,19.15
2023-08-13T02:00:08.064Z,19.04
2023-08-13T02:02:35.984Z,19.01
2023-08-13T02:05:03.856Z,18.98
2023-08-13T02:07:31.614Z,19.01
2023-08-13T02:09:59.253Z,19.00
2023-08-13T02:12:28.261Z,19.10
2023-08-13T02:14:55.911Z,19.07
2023-08-13T02:17:23.885Z,19.20
2023-08-13T02:19:51.681Z,19.14
2023-08-13T02:22:19.349Z,19.08
2023-08-13T02:24:46.960Z,19.04
2023-08-13T02:27:14.598Z,18.97
2023-08-13T02:29:43.518Z,18.98
2023-08-13T02:32:11.736Z,19.06
2023-08-13T02:34:44.955Z,19.14
2023-08-13T02:37:12.758Z,19.02
2023-08-13T02:39:40.572Z,18.98
2023-08-13T02:42:08.271Z,19.05
2023-08-13T02:44:35.884Z,19.02
2023-08-13T02:47:06.028Z,18.92
2023-08-13T02:49:33.643Z,18.84
2023-08-13T02:52:01.396Z,18.90
2023-08-13T02:54:29.104Z,18.95
2023-08-13T02:56:56.730Z,18.91
2023-08-13T02:59:24.371Z,18.90
2023-08-13T03:01:52.047Z,18.90
2023-08-13T03:04:21.127Z,18.94
2023-08-13T03:06:48.802Z,18.89
2023-08-13T03:09:20.849Z,18.80
2023-08-13T03:11:48.573Z,18.66
2023-08-13T03:14:16.821Z,18.66
2023-08-13T03:16:44.602Z,18.65
2023-08-13T03:19:12.369Z,18.67
2023-08-13T03:21:43.913Z,18.64
2023-08-13T03:24:11.611Z,18.64
2023-08-13T03:26:39.541Z,18.65
2023-08-13T03:29:07.507Z,18.64
2023-08-13T03:31:35.201Z,18.58
2023-08-13T03:34:18.532Z,18.64
2023-08-13T03:36:47.752Z,18.61
2023-08-13T03:39:16.605Z,18.62
2023-08-13T03:41:44.247Z,18.68
2023-08-13T03:44:13.376Z,18.74
2023-08-13T03:46:41.602Z,18.77
2023-08-13T03:49:09.293Z,18.78
2023-08-13T03:51:36.937Z,18.80
2023-08-13T03:54:10.086Z,18.71
2023-08-13T03:56:38.135Z,18.68
2023-08-13T03:59:05.961Z,18.69
2023-08-13T04:01:34.400Z,18.61
2023-08-13T04:04:02.419Z,18.66
2023-08-13T04:06:31.246Z,18.74
2023-08-13T04:08:59.054Z,18.57
2023-08-13T04:11:28.127Z,18.42
2023-08-13T04:13:55.877Z,18.41
2023-08-13T04:16:24.273Z,18.40
2023-08-13T04:18:52.176Z,18.36
2023-08-13T04:21:22.137Z,18.32
2023-08-13T04:23:50.240Z,18.38
2023-08-13T04:26:18.841Z,18.43
2023-08-13T04:28:48.299Z,18.38
2023-08-13T04:31:18.331Z,18.39
2023-08-13T04:33:46.004Z,18.40
2023-08-13T04:36:15.363Z,18.32
2023-08-13T04:38:43.169Z,18.25
2023-08-13T04:41:11.034Z,18.26
2023-08-13T04:43:42.403Z,18.37
2023-08-13T04:46:12.124Z,18.43
2023-08-13T04:48:48.957Z,18.48
2023-08-13T04:51:21.763Z,18.53
2023-08-13T04:53:50.017Z,18.47
2023-08-13T04:56:19.603Z,18.53
2023-08-13T04:58:47.337Z,18.57
2023-08-13T05:01:16.953Z,18.67
2023-08-13T05:03:50.395Z,18.57
2023-08-13T05:06:19.538Z,18.44
2023-08-13T05:08:47.169Z,18.47
2023-08-13T05:11:15.206Z,18.61
2023-08-13T05:13:42.897Z,18.69
2023-08-13T05:16:10.998Z,18.74
2023-08-13T05:18:42.290Z,18.77
2023-08-13T05:21:10.021Z,18.85
2023-08-13T05:23:37.855Z,18.84
2023-08-13T05:26:05.615Z,18.68
2023-08-13T05:28:34.406Z,18.66
2023-08-13T05:31:04.086Z,18.59
2023-08-13T05:33:32.543Z,18.76
2023-08-13T05:36:01.905Z,18.81
2023-08-13T05:38:29.568Z,18.77
2023-08-13T05:40:57.218Z,18.78
2023-08-13T05:43:24.946Z,18.79
2023-08-13T05:45:53.414Z,18.78
2023-08-13T05:48:21.419Z,18.80
2023-08-13T05:50:49.100Z,18.67
2023-08-13T05:53:18.167Z,18.77
2023-08-13T05:55:46.283Z,18.80
2023-08-13T05:58:13.910Z,18.91
2023-08-13T06:00:42.044Z,18.91
2023-08-13T06:03:10.185Z,18.95
2023-08-13T06:05:39.940Z,19.02
2023-08-13T06:08:08.120Z,19.09
2023-08-13T06:10:37.075Z,19.21
2023-08-13T06:13:05.141Z,19.24
2023-08-13T06:15:32.772Z,19.36
2023-08-13T06:18:00.421Z,19.47
2023-08-13T06:20:28.325Z,19.52
2023-08-13T06:22:56.320Z,19.56
2023-08-13T06:25:23.982Z,19.62
2023-08-13T06:27:52.934Z,19.62
2023-08-13T06:30:20.799Z,19.67
2023-08-13T06:32:48.466Z,19.76
2023-08-13T06:35:16.482Z,19.77
2023-08-13T06:37:59.486Z,19.88
2023-08-13T06:40:29.469Z,19.95
2023-08-13T06:42:58.424Z,20.06
2023-08-13T06:45:28.023Z,20.15
2023-08-13T06:47:57.667Z,20.20
2023-08-13T06:50:25.422Z,20.23
2023-08-13T06:52:53.720Z,20.26
2023-08-13T06:55:21.313Z,20.25
2023-08-13T06:57:48.951Z,20.29
2023-08-13T07:00:22.103Z,20.26
2023-08-13T07:02:56.430Z,20.28
2023-08-13T07:05:24.182Z,20.33
2023-08-13T07:07:52.750Z,20.45
2023-08-13T07:10:20.410Z,20.56
2023-08-13T07:12:48.045Z,20.67
2023-08-13T07:15:15.786Z,20.69
2023-08-13T07:17:44.851Z,20.70
2023-08-13T07:20:15.301Z,20.63
2023-08-13T07:22:44.496Z,20.59
2023-08-13T07:25:13.421Z,20.71
2023-08-13T07:27:42.681Z,20.90
2023-08-13T07:30:11.914Z,20.87
2023-08-13T07:32:41.834Z,21.00
2023-08-13T07:35:13.293Z,20.92
2023-08-13T07:37:41.364Z,21.00
2023-08-13T07:40:12.304Z,21.19
2023-08-13T07:42:42.066Z,21.37
2023-08-13T07:45:12.230Z,21.54
2023-08-13T07:47:40.499Z,21.76
2023-08-13T07:50:09.695Z,21.94
2023-08-13T07:52:38.686Z,21.83
2023-08-13T07:55:07.624Z,21.78
2023-08-13T07:57:35.676Z,21.81
2023-08-13T08:00:03.372Z,21.87
2023-08-13T08:02:40.368Z,21.88
2023-08-13T08:05:08.762Z,22.07
2023-08-13T08:07:37.810Z,22.28
2023-08-13T08:10:06.177Z,22.42
2023-08-13T08:12:33.912Z,22.30
2023-08-13T08:15:01.532Z,22.20
2023-08-13T08:17:29.542Z,22.34
2023-08-13T08:19:57.160Z,22.51
2023-08-13T08:22:24.849Z,22.61
2023-08-13T08:24:53.935Z,22.82
2023-08-13T08:27:21.609Z,22.88
2023-08-13T08:29:49.218Z,22.71
2023-08-13T08:32:17.146Z,22.60
2023-08-13T08:34:45.706Z,22.52
2023-08-13T08:37:15.135Z,22.49
2023-08-13T08:39:42.898Z,22.38
2023-08-13T08:42:13.756Z,22.46
2023-08-13T08:44:44.191Z,22.56
2023-08-13T08:47:12.218Z,22.65
2023-08-13T08:49:39.879Z,22.84
2023-08-13T08:52:07.968Z,22.88
2023-08-13T08:54:40.436Z,23.05
2023-08-13T08:57:08.062Z,23.01
2023-08-13T08:59:37.593Z,23.12
2023-08-13T09:02:05.629Z,23.35
2023-08-13T09:04:33.379Z,23.37
2023-08-13T09:07:02.914Z,23.45
2023-08-13T09:09:31.285Z,23.67
2023-08-13T09:11:59.857Z,23.65
2023-08-13T09:14:27.807Z,23.95
2023-08-13T09:16:58.185Z,24.00
2023-08-13T09:19:27.792Z,23.68
2023-08-13T09:21:56.492Z,23.78
2023-08-13T09:24:34.691Z,23.93
2023-08-13T09:27:03.223Z,24.05
2023-08-13T09:29:32.030Z,24.33
2023-08-13T09:32:02.102Z,24.47
2023-08-13T09:34:30.955Z,24.43
2023-08-13T09:36:59.863Z,24.58
2023-08-13T09:39:29.123Z,24.81
2023-08-13T09:41:57.393Z,24.91
2023-08-13T09:44:26.311Z,24.98
2023-08-13T09:46:55.967Z,24.90
2023-08-13T09:49:25.219Z,24.84
2023-08-13T09:51:54.012Z,25.06
2023-08-13T09:54:30.675Z,25.43
2023-08-13T09:57:03.403Z,25.70
2023-08-13T09:59:34.122Z,26.01
2023-08-13T10:02:01.910Z,26.08
2023-08-13T10:04:30.944Z,25.94
2023-08-13T10:06:59.080Z,25.71
2023-08-13T10:09:27.583Z,25.49
2023-08-13T10:11:55.612Z,25.81
2023-08-13T10:14:23.268Z,25.84
2023-08-13T10:16:51.146Z,26.07
2023-08-13T10:19:20.240Z,26.37
2023-08-13T10:21:57.018Z,26.64
2023-08-13T10:24:25.662Z,26.73
2023-08-13T10:26:54.220Z,26.84
2023-08-13T10:29:22.919Z,26.85
2023-08-13T10:31:55.909Z,26.83
2023-08-13T10:34:41.628Z,26.35
2023-08-13T10:37:18.377Z,26.50
2023-08-13T10:39:47.437Z,26.20
2023-08-13T10:42:49.931Z,26.50
2023-08-13T10:45:20.120Z,26.50
2023-08-13T10:47:50.313Z,26.49
2023-08-13T10:50:23.458Z,26.40
2023-08-13T10:52:54.256Z,25.98
2023-08-13T10:55:24.297Z,26.27
2023-08-13T10:57:53.105Z,26.52
2023-08-13T11:00:23.135Z,26.39
2023-08-13T11:02:54.467Z,26.58
2023-08-13T11:05:23.249Z,26.80
2023-08-13T11:07:53.229Z,26.81
2023-08-13T11:10:22.353Z,26.76
2023-08-13T11:12:50.927Z,26.75
2023-08-13T11:15:18.798Z,26.98
2023-08-13T11:17:48.930Z,26.81
2023-08-13T11:20:19.404Z,26.57
2023-08-13T11:22:47.465Z,26.96
2023-08-13T11:25:16.798Z,27.49
2023-08-13T11:27:44.436Z,27.80
2023-08-13T11:30:12.918Z,27.59
2023-08-13T11:32:40.794Z,27.55
2023-08-13T11:35:10.827Z,27.48
2023-08-13T11:37:39.210Z,27.30
2023-08-13T11:40:10.907Z,26.95
2023-08-13T11:42:44.868Z,26.46
2023-08-13T11:45:13.399Z,26.20
2023-08-13T11:47:41.084Z,26.15
2023-08-13T11:50:19.736Z,26.45
2023-08-13T11:53:02.967Z,26.87
2023-08-13T11:55:31.252Z,27.18
2023-08-13T11:58:00.544Z,27.38
2023-08-13T12:00:28.594Z,27.30
2023-08-13T12:02:57.243Z,27.43
2023-08-13T12:05:27.044Z,27.18
2023-08-13T12:07:55.070Z,26.89
2023-08-13T12:10:22.766Z,26.77
2023-08-13T12:12:50.400Z,27.11
2023-08-13T12:15:23.050Z,27.21
2023-08-13T12:17:50.711Z,27.67
2023-08-13T12:20:18.359Z,27.34
2023-08-13T12:22:45.976Z,27.18
2023-08-13T12:25:13.685Z,27.10
2023-08-13T12:27:41.473Z,27.36
2023-08-13T12:30:09.983Z,27.14
2023-08-13T12:32:39.299Z,27.34
2023-08-13T12:35:09.796Z,27.38
2023-08-13T12:37:37.457Z,27.89
2023-08-13T12:40:05.620Z,27.26
2023-08-13T12:42:33.440Z,27.38
2023-08-13T12:45:01.754Z,27.21
2023-08-13T12:47:29.403Z,27.66
2023-08-13T12:49:58.351Z,27.84
2023-08-13T12:52:26.104Z,27.73
2023-08-13T12:54:53.989Z,27.76
2023-08-13T12:57:21.961Z,27.88
2023-08-13T12:59:49.590Z,28.12
2023-08-13T13:02:17.786Z,28.15
2023-08-13T13:04:45.744Z,27.74
2023-08-13T13:07:14.747Z,27.71
2023-08-13T13:09:42.387Z,27.82
2023-08-13T13:12:10.556Z,28.03
2023-08-13T13:14:39.078Z,28.04
2023-08-13T13:17:06.931Z,27.81
2023-08-13T13:19:34.625Z,27.50
2023-08-13T13:22:02.566Z,27.42
2023-08-13T13:24:31.508Z,27.53
2023-08-13T13:26:59.218Z,27.49
2023-08-13T13:29:26.993Z,27.23
2023-08-13T13:31:54.618Z,27.42
2023-08-13T13:34:22.311Z,27.48
2023-08-13T13:36:50.023Z,27.59
2023-08-13T13:39:18.013Z,27.49
2023-08-13T13:41:46.988Z,27.50
2023-08-13T13:44:15.293Z,27.35
2023-08-13T13:46:43.066Z,27.24
2023-08-13T13:49:10.652Z,27.20
2023-08-13T13:51:38.287Z,27.38
2023-08-13T13:54:07.593Z,27.27
2023-08-13T13:56:35.297Z,27.15
2023-08-13T13:59:05.181Z,26.96
2023-08-13T14:01:32.802Z,26.98
2023-08-13T14:04:00.850Z,27.06
2023-08-13T14:06:28.646Z,27.07
2023-08-13T14:08:56.347Z,27.10
2023-08-13T14:11:24.116Z,27.13
2023-08-13T14:13:51.733Z,27.14
2023-08-13T14:16:20.720Z,27.15
2023-08-13T14:18:48.401Z,26.92
2023-08-13T14:21:16.113Z,26.85
2023-08-13T14:23:43.756Z,27.01
2023-08-13T14:26:11.368Z,26.94
2023-08-13T14:28:39.166Z,26.90
2023-08-13T14:31:06.885Z,26.87
2023-08-13T14:33:35.924Z,26.80
2023-08-13T14:36:03.583Z,26.84
2023-08-13T14:38:31.236Z,26.76
2023-08-13T14:40:58.900Z,26.52
2023-08-13T14:43:27.714Z,26.70
2023-08-13T14:45:55.532Z,26.75
2023-08-13T14:48:23.393Z,26.76
2023-08-13T14:50:52.788Z,26.75
2023-08-13T14:53:20.407Z,26.82
2023-08-13T14:55:48.015Z,26.85
2023-08-13T14:58:15.649Z,26.82
2023-08-13T15:00:43.272Z,26.68
2023-08-13T15:03:11.000Z,26.63
2023-08-13T15:05:39.333Z,26.66
2023-08-13T15:08:08.418Z,26.62
2023-08-13T15:10:36.035Z,26.55
2023-08-13T15:13:03.808Z,26.56
2023-08-13T15:15:31.493Z,26.75
2023-08-13T15:17:59.236Z,26.81
2023-08-13T15:20:26.937Z,26.63
2023-08-13T15:22:54.583Z,26.57
2023-08-13T15:25:23.560Z,26.57
2023-08-13T15:27:51.178Z,26.64
2023-08-13T15:30:19.098Z,26.78
2023-08-13T15:32:46.997Z,26.86
2023-08-13T15:35:14.608Z,26.77
2023-08-13T15:37:42.284Z,26.54
2023-08-13T15:40:10.608Z,26.50
2023-08-13T15:42:39.675Z,26.46
2023-08-13T15:45:08.617Z,26.29
2023-08-13T15:47:36.271Z,26.21
2023-08-13T15:50:04.155Z,26.17
2023-08-13T15:52:31.828Z,26.17
2023-08-13T15:54:59.443Z,26.20
2023-08-13T15:57:27.137Z,26.09
2023-08-13T15:59:56.198Z,26.05
2023-08-13T16:02:23.873Z,26.05
2023-08-13T16:04:51.545Z,25.98
2023-08-13T16:07:19.239Z,25.93
2023-08-13T16:09:46.953Z,25.91
2023-08-13T16:12:14.919Z,25.86
2023-08-13T16:14:42.759Z,25.85
2023-08-13T16:17:11.876Z,25.81
2023-08-13T16:19:39.540Z,25.76
2023-08-13T16:22:07.324Z,25.72
2023-08-13T16:24:34.981Z,25.73
2023-08-13T16:27:04.726Z,25.65
2023-08-13T16:29:32.506Z,25.58
2023-08-13T16:32:00.443Z,25.57
2023-08-13T16:34:29.519Z,25.55
2023-08-13T16:36:57.215Z,25.54
2023-08-13T16:39:24.877Z,25.50
2023-08-13T16:41:52.504Z,25.58
2023-08-13T16:44:20.394Z,25.57
2023-08-13T16:46:48.165Z,25.47
2023-08-13T16:49:16.081Z,25.52
2023-08-13T16:51:45.337Z,25.56
2023-08-13T16:54:13.219Z,25.53
2023-08-13T16:56:40.880Z,25.44
2023-08-13T16:59:08.785Z,25.35
2023-08-13T17:01:36.651Z,25.39
2023-08-13T17:04:04.810Z,25.35
2023-08-13T17:06:32.743Z,25.30
2023-08-13T17:09:02.158Z,25.38
2023-08-13T17:11:29.792Z,25.34
2023-08-13T17:13:57.517Z,25.22
2023-08-13T17:16:25.149Z,25.14
2023-08-13T17:18:53.016Z,25.17
2023-08-13T17:21:20.647Z,25.13
2023-08-13T17:23:48.256Z,25.08
2023-08-13T17:26:17.221Z,25.06
2023-08-13T17:28:44.995Z,25.06
2023-08-13T17:31:12.714Z,25.03
2023-08-13T17:33:40.455Z,24.98
2023-08-13T17:36:09.071Z,24.98
2023-08-13T17:38:36.909Z,24.96
2023-08-13T17:41:04.526Z,24.96
2023-08-13T17:43:35.647Z,24.92
2023-08-13T17:46:03.360Z,24.87
2023-08-13T17:48:31.109Z,24.83
2023-08-13T17:50:59.323Z,24.82
2023-08-13T17:53:27.130Z,24.76
2023-08-13T17:55:54.874Z,24.71
2023-08-13T17:58:22.601Z,24.63
2023-08-13T18:00:51.833Z,24.59
2023-08-13T18:03:20.245Z,24.53
2023-08-13T18:05:47.940Z,24.48
2023-08-13T18:08:16.502Z,24.37
2023-08-13T18:10:44.331Z,24.32
2023-08-13T18:13:12.026Z,24.29
2023-08-13T18:15:39.807Z,24.28
2023-08-13T18:18:12.315Z,24.24
2023-08-13T18:20:39.980Z,24.21
2023-08-13T18:23:07.750Z,24.17
2023-08-13T18:25:36.219Z,24.11
2023-08-13T18:28:05.183Z,24.10
2023-08-13T18:30:33.052Z,24.06
2023-08-13T18:33:01.036Z,24.09
2023-08-13T18:35:30.317Z,24.04
2023-08-13T18:37:59.128Z,23.98
2023-08-13T18:40:28.950Z,23.90
2023-08-13T18:42:56.665Z,23.89
2023-08-13T18:45:29.496Z,23.86
2023-08-13T18:47:57.289Z,23.81
2023-08-13T18:50:25.011Z,23.83
2023-08-13T18:52:55.205Z,23.81
2023-08-13T18:55:22.940Z,23.81
2023-08-13T18:57:50.586Z,23.79
2023-08-13T19:00:18.334Z,23.77
2023-08-13T19:02:46.100Z,23.76
2023-08-13T19:05:14.037Z,23.75
2023-08-13T19:07:41.711Z,23.64
2023-08-13T19:10:11.053Z,23.61
2023-08-13T19:12:38.745Z,23.58
2023-08-13T19:15:07.156Z,23.56
2023-08-13T19:17:34.925Z,23.47
2023-08-13T19:20:02.686Z,23.48
2023-08-13T19:22:30.332Z,23.41
2023-08-13T19:24:57.926Z,23.30
2023-08-13T19:27:27.086Z,23.30
2023-08-13T19:29:54.678Z,23.27
2023-08-13T19:32:22.294Z,23.29
2023-08-13T19:34:50.256Z,23.27
2023-08-13T19:37:17.867Z,23.29
2023-08-13T19:39:45.494Z,23.17
2023-08-13T19:42:13.293Z,23.11
2023-08-13T19:44:42.230Z,23.06
2023-08-13T19:47:10.138Z,22.97
2023-08-13T19:49:37.765Z,22.96
2023-08-13T19:52:05.839Z,22.92
2023-08-13T19:54:33.485Z,22.89
2023-08-13T19:57:01.334Z,22.82
2023-08-13T19:59:28.978Z,22.78
2023-08-13T20:01:57.942Z,22.74
2023-08-13T20:04:25.625Z,22.68
2023-08-13T20:06:53.254Z,22.63
2023-08-13T20:09:20.932Z,22.61
2023-08-13T20:11:48.556Z,22.55
2023-08-13T20:14:16.220Z,22.53
2023-08-13T20:16:43.905Z,22.58
2023-08-13T20:19:12.963Z,22.55
2023-08-13T20:21:48.011Z,22.58
2023-08-13T20:24:15.881Z,22.55
2023-08-13T20:26:43.849Z,22.57
2023-08-13T20:29:13.941Z,22.54
2023-08-13T20:31:42.777Z,22.57
2023-08-13T20:34:10.872Z,22.61
2023-08-13T20:36:39.992Z,22.61
2023-08-13T20:39:08.355Z,22.64
2023-08-13T20:41:36.339Z,22.62
2023-08-13T20:44:05.172Z,22.63
2023-08-13T20:46:33.641Z,22.59
2023-08-13T20:49:05.097Z,22.49
2023-08-13T20:51:32.997Z,22.39
2023-08-13T20:54:02.022Z,22.36
2023-08-13T20:56:29.620Z,22.35
2023-08-13T20:58:57.312Z,22.37
2023-08-13T21:01:25.362Z,22.36
2023-08-13T21:03:53.071Z,22.31
2023-08-13T21:06:20.667Z,22.26
2023-08-13T21:08:48.270Z,22.24
2023-08-13T21:11:17.322Z,22.21
2023-08-13T21:13:45.038Z,22.18
2023-08-13T21:16:13.354Z,22.22
2023-08-13T21:18:40.974Z,22.10
2023-08-13T21:21:08.624Z,22.13
2023-08-13T21:23:36.217Z,22.07
2023-08-13T21:26:03.852Z,22.04
2023-08-13T21:28:32.785Z,22.03
2023-08-13T21:31:00.398Z,22.10
2023-08-13T21:33:28.047Z,22.16
2023-08-13T21:35:55.691Z,22.07
2023-08-13T21:38:23.296Z,22.07
2023-08-13T21:40:50.918Z,22.09
2023-08-13T21:43:18.520Z,22.12
2023-08-13T21:45:47.474Z,22.08
2023-08-13T21:48:15.146Z,22.14
2023-08-13T21:50:42.909Z,22.13
2023-08-13T21:53:10.482Z,22.11
2023-08-13T21:55:38.225Z,22.12
2023-08-13T21:58:05.818Z,22.20
2023-08-13T22:00:33.446Z,22.22
2023-08-13T22:03:02.738Z,22.21
2023-08-13T22:05:31.680Z,22.09
2023-08-13T22:07:59.374Z,22.06
2023-08-13T22:10:27.067Z,22.02
2023-08-13T22:12:54.682Z,22.08
2023-08-13T22:15:22.358Z,22.11
2023-08-13T22:17:50.148Z,21.97
2023-08-13T22:20:20.862Z,21.97
2023-08-13T22:22:50.601Z,21.99
2023-08-13T22:25:19.106Z,21.92
2023-08-13T22:27:46.743Z,21.73
2023-08-13T22:30:14.562Z,21.59
2023-08-13T22:32:42.240Z,21.70
2023-08-13T22:35:10.026Z,21.75
2023-08-13T22:37:38.972Z,21.74
2023-08-13T22:40:08.098Z,21.84
2023-08-13T22:42:35.738Z,21.88
2023-08-13T22:45:03.584Z,21.72
2023-08-13T22:47:31.440Z,21.63
2023-08-13T22:49:59.448Z,21.59
2023-08-13T22:52:27.309Z,21.44
2023-08-13T22:54:56.341Z,21.47
2023-08-13T22:57:24.378Z,21.51
2023-08-13T22:59:52.045Z,21.48
2023-08-13T23:02:20.080Z,21.50
2023-08-13T23:04:47.882Z,21.52
2023-08-13T23:07:15.973Z,21.56
2023-08-13T23:09:43.623Z,21.40
2023-08-13T23:12:12.571Z,21.18
2023-08-13T23:14:40.175Z,20.97
2023-08-13T23:17:07.924Z,20.74
2023-08-13T23:19:35.538Z,20.60
2023-08-13T23:22:03.200Z,20.67
2023-08-13T23:24:30.797Z,20.72
2023-08-13T23:26:58.406Z,20.83
2023-08-13T23:29:27.373Z,20.92
2023-08-13T23:31:55.040Z,21.01
2023-08-13T23:34:22.678Z,21.01
2023-08-13T23:36:50.354Z,21.02
2023-08-13T23:39:18.006Z,21.00
2023-08-13T23:41:48.379Z,21.02
2023-08-13T23:44:16.054Z,20.88
2023-08-13T23:46:45.018Z,20.75
2023-08-13T23:49:12.622Z,20.67
2023-08-13T23:51:40.293Z,20.58
2023-08-13T23:54:07.931Z,20.61
2023-08-13T23:56:35.572Z,20.60
2023-08-13T23:59:03.171Z,20.64
